sensor_id;sensor_type;location;lat;lon;timestamp;pressure;altitude;pressure_sealevel;temperature;humidity
54951;BME280;40854;45.282;4.302;2024-03-25T10:28:05;90717.91;;;18.06;38.04
54951;BME280;40854;45.282;4.302;2024-03-25T10:30:31;90700.16;;;18.36;37.75
54951;BME280;40854;45.282;4.302;2024-03-25T10:33:04;90697.56;;;18.57;37.35
54951;BME280;40854;45.282;4.302;2024-03-25T10:35:32;90697.34;;;18.71;36.48
54951;BME280;40854;45.282;4.302;2024-03-25T10:38:05;90688.84;;;18.86;37.01
54951;BME280;40854;45.282;4.302;2024-03-25T10:40:34;90683.94;;;18.97;35.73
54951;BME280;40854;45.282;4.302;2024-03-25T10:43:07;90669.16;;;19.08;36.01
54951;BME280;40854;45.282;4.302;2024-03-25T10:45:35;90668.44;;;19.20;35.58
54951;BME280;40854;45.282;4.302;2024-03-25T10:50:53;90653.59;;;19.39;34.99
54951;BME280;40854;45.282;4.302;2024-03-25T10:53:22;90656.63;;;19.50;34.40
54951;BME280;40854;45.282;4.302;2024-03-25T10:55:52;90652.03;;;19.59;35.14
54951;BME280;40854;45.282;4.302;2024-03-25T10:58:21;90640.28;;;19.60;34.28
54951;BME280;40854;45.282;4.302;2024-03-25T11:00:48;90648.31;;;19.72;34.03
54951;BME280;40854;45.282;4.302;2024-03-25T11:03:16;90645.88;;;19.80;34.27
54951;BME280;40854;45.282;4.302;2024-03-25T11:05:42;90622.84;;;19.84;33.76
54951;BME280;40854;45.282;4.302;2024-03-25T11:08:12;90631.72;;;19.88;34.00
54951;BME280;40854;45.282;4.302;2024-03-25T11:10:46;90629.63;;;19.93;34.04
54951;BME280;40854;45.282;4.302;2024-03-25T11:13:14;90609.25;;;19.97;33.76
54951;BME280;40854;45.282;4.302;2024-03-25T11:15:44;90614.69;;;20.01;33.92
54951;BME280;40854;45.282;4.302;2024-03-25T11:18:14;90606.47;;;20.06;33.50
54951;BME280;40854;45.282;4.302;2024-03-25T11:20:40;90590.97;;;20.08;33.57
54951;BME280;40854;45.282;4.302;2024-03-25T11:23:11;90593.41;;;20.13;33.36
54951;BME280;40854;45.282;4.302;2024-03-25T11:25:39;90594.19;;;20.14;33.60
54951;BME280;40854;45.282;4.302;2024-03-25T11:28:05;90595.19;;;20.21;33.28
54951;BME280;40854;45.282;4.302;2024-03-25T11:30:31;90587.31;;;20.25;33.41
54951;BME280;40854;45.282;4.302;2024-03-25T11:33:00;90587.09;;;20.30;33.09
54951;BME280;40854;45.282;4.302;2024-03-25T11:35:27;90576.22;;;20.35;33.12
54951;BME280;40854;45.282;4.302;2024-03-25T11:37:53;90571.03;;;20.38;33.25
54951;BME280;40854;45.282;4.302;2024-03-25T11:40:19;90563.91;;;20.42;33.14
54951;BME280;40854;45.282;4.302;2024-03-25T11:42:46;90569.78;;;20.48;32.75
54951;BME280;40854;45.282;4.302;2024-03-25T11:45:16;90561.91;;;20.52;33.10
54951;BME280;40854;45.282;4.302;2024-03-25T11:47:46;90555.25;;;20.58;32.77
54951;BME280;40854;45.282;4.302;2024-03-25T11:50:14;90556.91;;;20.62;32.61
54951;BME280;40854;45.282;4.302;2024-03-25T11:52:41;90553.22;;;20.67;32.77
54951;BME280;40854;45.282;4.302;2024-03-25T11:55:07;90535.03;;;20.69;32.67
54951;BME280;40854;45.282;4.302;2024-03-25T11:57:34;90545.44;;;20.74;32.43
54951;BME280;40854;45.282;4.302;2024-03-25T12:00:00;90536.78;;;20.77;32.72
54951;BME280;40854;45.282;4.302;2024-03-25T12:02:27;90546.84;;;20.84;31.87
54951;BME280;40854;45.282;4.302;2024-03-25T12:04:52;90528.28;;;20.87;31.77
54951;BME280;40854;45.282;4.302;2024-03-25T12:07:18;90531.59;;;20.96;32.00
54951;BME280;40854;45.282;4.302;2024-03-25T12:09:44;90538.22;;;21.02;31.98
54951;BME280;40854;45.282;4.302;2024-03-25T12:12:28;90531.53;;;21.08;31.64
54951;BME280;40854;45.282;4.302;2024-03-25T12:14:55;90534.41;;;21.16;31.00
54951;BME280;40854;45.282;4.302;2024-03-25T12:17:22;90527.94;;;21.17;31.01
54951;BME280;40854;45.282;4.302;2024-03-25T12:20:05;90523.84;;;21.19;31.26
54951;BME280;40854;45.282;4.302;2024-03-25T12:22:33;90537.38;;;21.26;30.88
54951;BME280;40854;45.282;4.302;2024-03-25T12:25:01;90525.25;;;21.29;30.94
54951;BME280;40854;45.282;4.302;2024-03-25T12:27:30;90529.03;;;21.28;30.89
54951;BME280;40854;45.282;4.302;2024-03-25T12:30:21;90519.16;;;21.28;31.16
54951;BME280;40854;45.282;4.302;2024-03-25T12:32:50;90514.78;;;21.36;31.07
